Time;durP1;ratioP1;P1;durP2;ratioP2;P2;SDS_P1;SDS_P2;PMS_P1;PMS_P2;Temp;Humidity;BMP_temperature;BMP_pressure;BME280_temperature;BME280_humidity;BME280_pressure;Samples;Min_cycle;Max_cycle;Signal;HPM_P1;HPM_P2
2023/06/13 00:01:49;;;;;;;5.97;2.77;;;;;;;-143.84;87.21;45064.31;5089031;28;20471;-52
2023/06/13 00:04:21;;;;;;;5.87;3.53;;;;;;;-143.84;87.30;45079.53;5088879;28;21029;-53
2023/06/13 00:06:49;;;;;;;4.10;3.17;;;;;;;-143.84;87.42;45043.34;5088633;28;20957;-52
2023/06/13 00:09:18;;;;;;;7.10;3.47;;;;;;;-143.84;87.48;45050.97;5088801;28;20432;-52
2023/06/13 00:11:46;;;;;;;10.10;2.90;;;;;;;-143.84;87.85;45064.31;5088626;28;20924;-52
2023/06/13 00:14:16;;;;;;;3.33;2.97;;;;;;;-143.84;87.96;45037.66;5088608;28;20448;-52
2023/06/13 00:16:43;;;;;;;4.07;3.73;;;;;;;-143.84;88.16;45035.75;5088335;28;20514;-52
2023/06/13 00:19:11;;;;;;;3.63;2.87;;;;;;;-143.84;87.95;45052.88;5088361;28;20569;-53
2023/06/13 00:21:40;;;;;;;3.50;3.20;;;;;;;-143.84;87.87;45026.22;5088400;28;20942;-52
2023/06/13 00:24:07;;;;;;;7.40;3.03;;;;;;;-143.84;87.71;45047.16;5091066;28;21335;-53
2023/06/13 00:26:35;;;;;;;3.70;3.40;;;;;;;-143.84;87.63;45049.06;5092840;28;20506;-52
2023/06/13 00:29:02;;;;;;;2.73;2.53;;;;;;;-143.84;87.71;45073.81;5092371;28;20440;-52
2023/06/13 00:31:29;;;;;;;7.00;3.50;;;;;;;-143.84;87.93;45071.91;5092366;28;20457;-52
2023/06/13 00:33:57;;;;;;;3.43;3.13;;;;;;;-143.84;87.82;45041.44;5092143;28;20432;-52
2023/06/13 00:36:25;;;;;;;3.37;2.70;;;;;;;-143.84;88.09;45047.16;5092056;28;20442;-52
2023/06/13 00:38:53;;;;;;;3.53;3.23;;;;;;;-143.84;88.22;45043.34;5091652;28;20946;-52
2023/06/13 00:41:21;;;;;;;2.87;2.67;;;;;;;-143.84;88.21;45035.75;5092186;28;20448;-52
2023/06/13 00:43:48;;;;;;;3.93;3.13;;;;;;;-143.84;88.22;45014.78;5091904;28;20493;-52
2023/06/13 00:46:17;;;;;;;3.80;3.00;;;;;;;-143.84;88.26;45043.34;5091732;28;20451;-52
2023/06/13 00:48:46;;;;;;;4.10;3.40;;;;;;;-143.84;88.45;45037.66;5091475;28;20501;-53
2023/06/13 00:51:14;;;;;;;3.80;3.50;;;;;;;-143.84;88.77;45026.22;5091482;28;20449;-52
2023/06/13 00:53:42;;;;;;;3.70;3.23;;;;;;;-143.84;88.78;45028.13;5091574;28;20946;-52
2023/06/13 00:56:11;;;;;;;3.40;3.20;;;;;;;-143.84;88.72;45037.66;5091509;28;20440;-52
2023/06/13 00:58:38;;;;;;;5.90;2.63;;;;;;;-143.84;88.92;45018.59;5091973;28;20440;-52
2023/06/13 01:01:09;;;;;;;6.00;3.10;;;;;;;-143.84;88.87;45045.25;5091577;28;20476;-52
2023/06/13 01:03:39;;;;;;;4.00;3.70;;;;;;;-143.84;89.10;45030.03;5091332;28;20437;-52
2023/06/13 01:06:06;;;;;;;5.20;3.67;;;;;;;-143.84;89.17;45024.31;5091653;28;20509;-52
2023/06/13 01:08:35;;;;;;;7.00;3.97;;;;;;;-143.84;89.19;45035.75;5091558;28;20787;-52
2023/06/13 01:11:10;;;;;;;3.60;3.30;;;;;;;-143.84;89.17;45010.97;5091300;28;20527;-52
2023/06/13 01:13:48;;;;;;;4.53;3.40;;;;;;;-143.84;89.58;45010.97;5091290;28;20522;-52
2023/06/13 01:16:22;;;;;;;4.23;3.87;;;;;;;-143.84;89.83;44999.56;5090982;28;20472;-52
2023/06/13 01:18:52;;;;;;;5.30;3.60;;;;;;;-143.84;89.70;45014.78;5091376;28;20440;-52
2023/06/13 01:21:21;;;;;;;8.20;3.80;;;;;;;-143.84;89.71;44991.94;5091134;28;20468;-52
2023/06/13 01:23:53;;;;;;;4.10;3.73;;;;;;;-143.84;89.85;44999.56;5091115;28;20452;-53
2023/06/13 01:26:39;;;;;;;3.80;3.50;;;;;;;-143.84;90.04;44986.22;5091181;28;20497;-52
2023/06/13 01:29:06;;;;;;;4.53;3.30;;;;;;;-143.84;89.77;44991.94;5090908;28;20513;-52
2023/06/13 01:31:36;;;;;;;3.60;3.40;;;;;;;-143.84;90.24;44995.75;5091127;28;20436;-53
2023/06/13 01:34:04;;;;;;;16.93;4.17;;;;;;;-143.84;90.35;44995.75;5090790;28;20440;-52
2023/06/13 01:36:31;;;;;;;4.20;3.80;;;;;;;-143.84;90.21;44978.63;5090661;28;20446;-52
2023/06/13 01:38:58;;;;;;;5.20;3.13;;;;;;;-143.84;90.13;44967.19;5090837;28;20440;-52
2023/06/13 01:41:25;;;;;;;4.00;3.60;;;;;;;-143.84;90.48;44984.31;5090493;28;21072;-52
2023/06/13 01:43:54;;;;;;;6.03;4.37;;;;;;;-143.84;90.44;44980.53;5090937;28;20808;-52
2023/06/13 01:46:27;;;;;;;3.67;3.37;;;;;;;-143.84;90.46;44961.47;5090374;28;20502;-52
2023/06/13 01:49:05;;;;;;;4.00;3.60;;;;;;;-143.84;90.55;44972.91;5090733;28;20442;-52
2023/06/13 01:51:40;;;;;;;6.87;3.60;;;;;;;-143.84;90.89;44959.56;5090502;28;20448;-52
2023/06/13 01:54:11;;;;;;;5.33;4.30;;;;;;;-143.84;91.16;44953.88;5090856;28;20440;-53
2023/06/13 01:56:41;;;;;;;12.53;4.30;;;;;;;-143.84;91.16;44934.81;5090535;28;20512;-52
2023/06/13 01:59:11;;;;;;;6.37;4.13;;;;;;;-143.84;90.95;44971.00;5090595;28;20947;-52
2023/06/13 02:01:39;;;;;;;4.00;3.70;;;;;;;-143.84;91.40;44904.34;5090121;28;20880;-52
2023/06/13 02:04:07;;;;;;;4.80;4.40;;;;;;;-143.84;91.20;44900.53;5090428;28;20444;-52
2023/06/13 02:06:35;;;;;;;5.83;4.17;;;;;;;-143.84;91.14;44934.81;5090068;28;20432;-52
2023/06/13 02:09:03;;;;;;;4.43;4.03;;;;;;;-143.84;91.15;44896.75;5090230;28;20444;-52
2023/06/13 02:11:30;;;;;;;4.20;3.90;;;;;;;-143.84;91.05;44931.00;5090118;28;20443;-51
2023/06/13 02:13:58;;;;;;;4.33;3.90;;;;;;;-143.84;91.26;44957.66;5090162;28;20466;-52
2023/06/13 02:16:30;;;;;;;7.60;4.30;;;;;;;-143.84;91.36;44906.25;5089598;28;20488;-52
2023/06/13 02:18:59;;;;;;;9.60;3.70;;;;;;;-143.84;91.43;44889.13;5089987;28;20502;-52
2023/06/13 02:21:27;;;;;;;7.13;3.80;;;;;;;-143.84;91.58;44885.31;5090007;28;20472;-51
2023/06/13 02:23:54;;;;;;;4.53;4.13;;;;;;;-143.84;91.53;44883.41;5090139;28;20448;-52
2023/06/13 02:26:23;;;;;;;4.00;3.63;;;;;;;-143.84;91.67;44927.19;5089856;28;20885;-52
2023/06/13 02:28:50;;;;;;;8.33;4.90;;;;;;;-143.84;91.57;44881.50;5089902;28;20443;-52
2023/06/13 02:31:17;;;;;;;7.50;3.83;;;;;;;-143.84;91.59;44885.31;5089565;28;20512;-52
2023/06/13 02:33:45;;;;;;;4.20;3.80;;;;;;;-143.84;91.53;44866.28;5089961;28;20443;-52
2023/06/13 02:36:13;;;;;;;6.60;3.80;;;;;;;-143.84;91.11;44871.97;5089902;28;20444;-52
2023/06/13 02:38:40;;;;;;;4.23;3.83;;;;;;;-143.84;91.12;44892.94;5089440;28;20440;-52
2023/06/13 02:41:07;;;;;;;5.93;3.53;;;;;;;-143.84;91.01;44921.50;5089608;28;20973;-52
2023/06/13 02:43:34;;;;;;;5.57;3.97;;;;;;;-143.84;90.82;44873.88;5089527;28;20436;-52
2023/06/13 02:46:02;;;;;;;4.60;4.13;;;;;;;-143.84;90.50;44913.88;5088981;28;20432;-52
2023/06/13 02:48:29;;;;;;;4.70;4.10;;;;;;;-143.84;90.38;44934.81;5089523;28;20451;-52
2023/06/13 02:50:58;;;;;;;5.57;4.20;;;;;;;-143.84;90.35;44965.28;5089683;28;20548;-52
2023/06/13 02:53:25;;;;;;;6.57;4.40;;;;;;;-143.84;90.07;44988.13;5089424;28;20444;-52
2023/06/13 02:55:52;;;;;;;3.80;3.40;;;;;;;-143.84;89.67;44988.13;5089638;28;20493;-52
2023/06/13 02:58:20;;;;;;;4.53;4.03;;;;;;;-143.84;89.78;44991.94;5089413;28;21099;-52
2023/06/13 03:00:49;;;;;;;4.97;4.57;;;;;;;-143.84;89.29;44999.56;5089167;28;20701;-52
2023/06/13 03:03:18;;;;;;;4.77;4.33;;;;;;;-143.84;89.13;44993.84;5089255;28;20444;-53
2023/06/13 03:05:47;;;;;;;5.50;3.90;;;;;;;-143.84;88.79;45030.03;5089294;28;20444;-52
2023/06/13 03:08:18;;;;;;;6.30;3.90;;;;;;;-143.84;88.53;45010.97;5089256;28;20527;-52
2023/06/13 03:10:48;;;;;;;7.00;3.90;;;;;;;-143.84;88.71;45003.38;5089216;28;20445;-53
2023/06/13 03:13:15;;;;;;;8.47;4.27;;;;;;;-143.84;88.54;44991.94;5089280;28;20498;-52
2023/06/13 03:15:43;;;;;;;5.63;3.00;;;;;;;-143.84;88.38;45022.41;5088886;28;20488;-52
2023/06/13 03:18:10;;;;;;;5.40;3.60;;;;;;;-143.84;88.22;44993.84;5089199;28;20440;-53
2023/06/13 03:20:37;;;;;;;6.20;3.83;;;;;;;-143.84;88.21;45022.41;5088942;28;20480;-52
2023/06/13 03:23:05;;;;;;;6.83;4.57;;;;;;;-143.84;87.90;45050.97;5089125;28;21125;-52
2023/06/13 03:25:33;;;;;;;3.70;3.50;;;;;;;-143.84;87.62;45047.16;5088949;28;20437;-53
2023/06/13 03:28:00;;;;;;;5.20;3.43;;;;;;;-143.84;87.40;45020.50;5088944;28;20517;-52
2023/06/13 03:30:27;;;;;;;4.17;3.87;;;;;;;-143.84;87.47;45035.75;5089308;28;20835;-52
2023/06/13 03:32:54;;;;;;;4.27;3.90;;;;;;;-143.84;86.13;45075.72;5088960;28;20432;-52
2023/06/13 03:35:22;;;;;;;4.63;3.50;;;;;;;-143.84;83.38;45066.22;5088902;28;21254;-52
2023/06/13 03:37:49;;;;;;;4.50;3.67;;;;;;;-143.84;79.31;45102.38;5089022;28;20441;-52
2023/06/13 03:40:16;;;;;;;3.83;3.50;;;;;;;-143.84;76.64;45098.56;5089062;28;20468;-52
2023/06/13 03:42:44;;;;;;;4.20;3.23;;;;;;;-143.84;74.17;45117.63;5088935;28;20509;-52
2023/06/13 03:45:15;;;;;;;3.87;3.57;;;;;;;-143.84;71.88;45106.19;5089155;28;20440;-53
2023/06/13 03:47:42;;;;;;;5.17;3.00;;;;;;;-143.84;70.66;45075.72;5088934;28;20440;-53
2023/06/13 03:50:09;;;;;;;3.43;3.23;;;;;;;-143.84;68.09;45104.28;5088816;28;20450;-53
2023/06/13 03:52:36;;;;;;;3.00;2.80;;;;;;;-143.84;66.36;45096.66;5087992;28;20478;-53
2023/06/13 03:55:04;;;;;;;3.00;2.73;;;;;;;-143.84;65.67;45102.38;5087811;28;20862;-54
2023/06/13 03:57:31;;;;;;;4.90;3.60;;;;;;;-143.84;64.22;45110.00;5088127;28;20443;-53
2023/06/13 04:00:00;;;;;;;3.60;3.30;;;;;;;-143.84;63.64;45070.00;5091881;28;21280;-53
2023/06/13 04:02:27;;;;;;;9.03;2.90;;;;;;;-143.84;62.13;45094.78;5092419;28;20507;-53
2023/06/13 04:04:56;;;;;;;5.23;3.23;;;;;;;-143.84;61.62;45100.47;5092007;28;20439;-52
2023/06/13 04:07:23;;;;;;;3.43;3.13;;;;;;;-143.84;61.10;45056.69;5092397;28;20492;-51
2023/06/13 04:09:51;;;;;;;3.50;2.80;;;;;;;-143.84;60.26;45085.25;5092164;28;20440;-51
2023/06/13 04:12:18;;;;;;;3.63;2.97;;;;;;;-143.84;59.99;45083.34;5092232;28;21022;-52
2023/06/13 04:14:45;;;;;;;2.97;2.77;;;;;;;-143.84;58.26;45089.06;5091822;28;20472;-51
2023/06/13 04:17:13;;;;;;;4.40;2.63;;;;;;;-143.84;58.44;45092.88;5092253;28;20910;-51
2023/06/13 04:19:41;;;;;;;3.67;2.57;;;;;;;-143.84;58.05;45070.00;5092420;28;20448;-51
2023/06/13 04:22:08;;;;;;;3.10;2.90;;;;;;;-143.84;58.30;45110.00;5092278;28;20486;-51
2023/06/13 04:24:35;;;;;;;5.93;2.70;;;;;;;-143.84;57.91;45073.81;5092465;28;20436;-51
2023/06/13 04:27:03;;;;;;;8.00;3.30;;;;;;;-143.84;57.87;45081.44;5092304;28;20440;-54
2023/06/13 04:29:31;;;;;;;2.50;2.30;;;;;;;-143.84;58.08;45071.91;5091974;28;20501;-51
2023/06/13 04:31:58;;;;;;;3.70;2.70;;;;;;;-143.84;58.43;45054.78;5091957;28;20443;-51
2023/06/13 04:34:27;;;;;;;3.03;2.83;;;;;;;-143.84;58.40;45070.00;5092080;28;20494;-50
2023/06/13 04:36:56;;;;;;;4.50;2.90;;;;;;;-143.84;57.13;45089.06;5091819;28;20460;-50
2023/06/13 04:39:24;;;;;;;4.17;2.60;;;;;;;-143.84;56.72;45089.06;5091798;28;20443;-50
2023/06/13 04:41:55;;;;;;;4.97;2.83;;;;;;;-143.84;56.91;45064.31;5091649;28;20476;-52
2023/06/13 04:44:25;;;;;;;9.80;3.00;;;;;;;-143.84;56.24;45058.59;5091806;28;20459;-50
2023/06/13 04:47:01;;;;;;;2.80;2.60;;;;;;;-143.84;56.05;45081.44;5091545;28;20515;-51
2023/06/13 04:49:30;;;;;;;4.27;2.70;;;;;;;-143.84;54.58;45054.78;5091956;28;20441;-51
2023/06/13 04:51:59;;;;;;;3.80;2.67;;;;;;;-143.84;53.30;45052.88;5091412;28;20445;-50
2023/06/13 04:54:26;;;;;;;3.70;2.17;;;;;;;-143.84;53.31;45064.31;5091628;28;20437;-50
2023/06/13 04:56:54;;;;;;;3.00;2.57;;;;;;;-143.84;52.37;45102.38;5091577;28;20444;-51
2023/06/13 04:59:21;;;;;;;7.90;2.33;;;;;;;-143.84;51.89;45068.13;5091474;28;20806;-51
2023/06/13 05:01:49;;;;;;;4.43;3.57;;;;;;;-143.84;51.84;45062.41;5091318;28;20529;-52
2023/06/13 05:04:16;;;;;;;7.80;2.63;;;;;;;-143.84;51.24;45071.91;5091531;28;20464;-50
2023/06/13 05:06:44;;;;;;;3.93;2.30;;;;;;;-143.84;49.91;45054.78;5091340;28;20444;-50
2023/06/13 05:09:13;;;;;;;3.60;2.10;;;;;;;-143.84;49.47;45041.44;5090804;28;21015;-51
2023/06/13 05:11:42;;;;;;;4.73;2.60;;;;;;;-143.84;47.82;45043.34;5091053;28;20552;-50
2023/06/13 05:14:09;;;;;;;6.10;2.67;;;;;;;-143.84;47.67;45052.88;5091182;28;20962;-50
2023/06/13 05:16:36;;;;;;;3.00;1.70;;;;;;;-143.84;47.23;45030.03;5090926;28;20485;-51
2023/06/13 05:19:05;;;;;;;3.43;2.53;;;;;;;-143.84;47.06;45033.84;5091037;28;20499;-51
2023/06/13 05:21:34;;;;;;;3.90;2.77;;;;;;;-143.84;45.92;45043.34;5090813;28;20515;-51
2023/06/13 05:24:03;;;;;;;2.40;2.20;;;;;;;-143.84;45.37;45049.06;5090812;28;20807;-52
2023/06/13 05:26:30;;;;;;;6.63;2.70;;;;;;;-143.84;45.18;45054.78;5091047;28;20451;-50
2023/06/13 05:28:58;;;;;;;5.93;2.50;;;;;;;-143.84;44.73;45058.59;5090926;28;20440;-51
2023/06/13 05:31:26;;;;;;;2.30;2.10;;;;;;;-143.84;44.67;45028.13;5090990;28;20525;-51
2023/06/13 05:33:53;;;;;;;6.13;2.07;;;;;;;-143.84;44.10;45064.31;5090970;28;21365;-51
2023/06/13 05:36:20;;;;;;;3.93;2.33;;;;;;;-143.84;44.33;45016.69;5090975;28;20443;-51
2023/06/13 05:38:47;;;;;;;2.70;2.50;;;;;;;-143.84;43.64;45014.78;5090672;28;20436;-51
2023/06/13 05:41:16;;;;;;;2.90;2.70;;;;;;;-143.84;42.87;45033.84;5090995;28;20734;-51
2023/06/13 05:43:43;;;;;;;2.27;2.07;;;;;;;-143.84;42.89;45014.78;5091012;28;20489;-51
2023/06/13 05:46:10;;;;;;;3.73;2.60;;;;;;;-143.84;42.90;45014.78;5090367;28;20504;-52
2023/06/13 05:48:37;;;;;;;2.60;2.40;;;;;;;-143.84;41.80;45024.31;5090525;28;20444;-50
2023/06/13 05:51:05;;;;;;;5.43;2.63;;;;;;;-143.84;41.52;45014.78;5090430;28;20448;-51
2023/06/13 05:53:32;;;;;;;14.60;3.03;;;;;;;-143.84;40.70;45030.03;5090225;28;20437;-51
2023/06/13 05:55:59;;;;;;;2.40;2.23;;;;;;;-143.84;40.94;45024.31;5090562;28;20443;-52
2023/06/13 05:58:28;;;;;;;4.60;2.47;;;;;;;-143.84;40.83;45026.22;5090338;28;20498;-51
2023/06/13 06:00:57;;;;;;;5.20;2.47;;;;;;;-143.84;40.88;45022.41;5090470;28;21258;-51
2023/06/13 06:03:24;;;;;;;3.30;2.40;;;;;;;-143.84;41.17;44976.72;5090188;28;20437;-50
2023/06/13 06:05:51;;;;;;;6.40;2.40;;;;;;;-143.84;40.91;45020.50;5090123;28;20440;-51
2023/06/13 06:08:18;;;;;;;3.73;3.37;;;;;;;-143.84;41.50;44997.66;5090024;28;20509;-51
2023/06/13 06:10:45;;;;;;;3.47;2.30;;;;;;;-143.84;40.64;45012.88;5090010;28;21027;-51
2023/06/13 06:13:12;;;;;;;9.20;2.67;;;;;;;-143.84;40.38;45018.59;5090130;28;20440;-51
2023/06/13 06:15:41;;;;;;;2.40;2.20;;;;;;;-143.84;41.00;44993.84;5089858;28;20993;-51
2023/06/13 06:18:08;;;;;;;6.33;1.70;;;;;;;-143.84;40.17;45014.78;5089993;28;20472;-51
2023/06/13 06:20:35;;;;;;;8.30;2.57;;;;;;;-143.84;40.56;45005.28;5089534;28;20806;-51
2023/06/13 06:23:02;;;;;;;1.80;1.70;;;;;;;-143.84;40.22;44986.22;5089729;28;20536;-51
2023/06/13 06:25:30;;;;;;;4.20;2.10;;;;;;;-143.84;40.08;45018.59;5089934;28;20776;-52
2023/06/13 06:27:57;;;;;;;2.37;2.17;;;;;;;-143.84;39.32;44980.53;5089644;28;20946;-52
2023/06/13 06:30:24;;;;;;;2.30;2.20;;;;;;;-143.84;39.21;44982.41;5089930;28;20441;-51
2023/06/13 06:32:54;;;;;;;3.03;2.00;;;;;;;-143.84;38.78;45003.38;5089724;28;21008;-51
2023/06/13 06:35:21;;;;;;;1.90;1.80;;;;;;;-143.84;38.32;44982.41;5089914;28;20468;-52
2023/06/13 06:37:48;;;;;;;2.13;1.93;;;;;;;-143.84;38.57;44984.31;5089593;28;20852;-50
2023/06/13 06:40:15;;;;;;;2.27;2.10;;;;;;;-143.84;39.10;44997.66;5089760;28;20439;-52
2023/06/13 06:42:43;;;;;;;6.43;1.60;;;;;;;-143.84;38.42;45001.47;5089551;28;20854;-51
2023/06/13 06:45:10;;;;;;;3.40;2.00;;;;;;;-143.84;38.75;44990.03;5089541;28;20429;-52
2023/06/13 06:47:38;;;;;;;2.00;1.80;;;;;;;-143.84;38.07;45016.69;5089323;28;20961;-51
2023/06/13 06:50:07;;;;;;;2.83;1.93;;;;;;;-143.84;38.78;44988.13;5089517;28;20529;-51
2023/06/13 06:52:34;;;;;;;4.87;1.97;;;;;;;-143.84;37.55;44990.03;5089482;28;20437;-52
2023/06/13 06:55:01;;;;;;;6.80;1.90;;;;;;;-143.84;38.18;44982.41;5089323;28;20437;-52
2023/06/13 06:57:28;;;;;;;4.93;1.80;;;;;;;-143.84;38.60;44993.84;5089258;28;20445;-52
2023/06/13 06:59:56;;;;;;;10.93;2.40;;;;;;;-143.84;38.72;45007.19;5089273;28;20432;-51
2023/06/13 07:02:23;;;;;;;10.60;2.27;;;;;;;-143.84;38.12;44997.66;5089007;28;20472;-51
2023/06/13 07:04:50;;;;;;;2.60;2.03;;;;;;;-143.84;38.63;45018.59;5089377;28;20432;-50
2023/06/13 07:07:19;;;;;;;1.97;1.87;;;;;;;-143.84;39.01;45018.59;5089080;28;20436;-50
2023/06/13 07:09:46;;;;;;;1.90;1.77;;;;;;;-143.84;38.81;45016.69;5089561;28;20452;-51
2023/06/13 07:12:13;;;;;;;4.40;1.80;;;;;;;-143.84;39.18;45020.50;5089184;28;20451;-51
2023/06/13 07:14:40;;;;;;;10.03;2.17;;;;;;;-143.84;40.02;45010.97;5088882;28;20440;-51
2023/06/13 07:17:07;;;;;;;2.73;1.50;;;;;;;-143.84;39.51;45010.97;5089628;28;20440;-51
2023/06/13 07:19:34;;;;;;;21.03;2.97;;;;;;;-143.84;40.54;45016.69;5089217;28;20440;-51
2023/06/13 07:22:02;;;;;;;2.63;2.13;;;;;;;-143.84;41.77;45014.78;5089221;28;20479;-51
2023/06/13 07:24:30;;;;;;;3.37;2.40;;;;;;;-143.84;43.22;45043.34;5089264;28;20467;-50
2023/06/13 07:26:57;;;;;;;9.90;2.70;;;;;;;-143.84;44.58;45031.94;5089026;28;20443;-51
2023/06/13 07:29:25;;;;;;;3.30;1.90;;;;;;;-143.84;45.29;45056.69;5088886;28;20448;-51
2023/06/13 07:31:52;;;;;;;7.27;1.93;;;;;;;-143.84;46.37;45018.59;5089592;28;20799;-52
2023/06/13 07:34:19;;;;;;;4.33;2.40;;;;;;;-143.84;46.20;45054.78;5092829;28;20445;-51
2023/06/13 07:36:47;;;;;;;4.17;1.97;;;;;;;-143.84;48.34;45043.34;5092842;28;20434;-51
2023/06/13 07:39:15;;;;;;;4.70;1.87;;;;;;;-143.84;49.80;45052.88;5093173;28;20450;-51
2023/06/13 07:41:46;;;;;;;2.10;2.00;;;;;;;-143.84;49.14;45052.88;5092868;28;20530;-51
2023/06/13 07:44:14;;;;;;;2.50;1.77;;;;;;;-143.84;48.95;45058.59;5092756;28;20456;-51
2023/06/13 07:46:41;;;;;;;1.90;1.80;;;;;;;-143.84;52.90;45064.31;5093127;28;20442;-51
2023/06/13 07:49:08;;;;;;;4.20;2.30;;;;;;;-143.84;50.84;45056.69;5092822;28;20490;-51
2023/06/13 07:51:35;;;;;;;3.83;2.37;;;;;;;-143.84;50.39;45056.69;5092711;28;20489;-51
2023/06/13 07:54:02;;;;;;;3.10;2.40;;;;;;;-143.84;50.81;45050.97;5086740;28;20472;-51
2023/06/13 07:56:29;;;;;;;2.70;2.50;;;;;;;-143.84;50.11;45037.66;5087265;28;21604;-51
2023/06/13 07:58:58;;;;;;;2.13;1.70;;;;;;;-143.84;49.77;45037.66;5086917;28;20519;-51
2023/06/13 08:01:25;;;;;;;2.03;1.70;;;;;;;-143.84;49.22;45035.75;5086144;28;21074;-55
2023/06/13 08:03:52;;;;;;;3.37;2.23;;;;;;;-143.84;49.00;45056.69;5084364;28;20444;-55
2023/06/13 08:06:19;;;;;;;1.73;1.63;;;;;;;-143.84;49.08;45012.88;5086324;28;21039;-55
2023/06/13 08:08:46;;;;;;;4.83;2.10;;;;;;;-143.84;48.91;45030.03;5086140;28;20443;-55
2023/06/13 08:11:13;;;;;;;3.00;2.10;;;;;;;-143.84;49.71;45056.69;5086344;28;20549;-55
2023/06/13 08:13:40;;;;;;;3.00;2.00;;;;;;;-143.84;50.62;45024.31;5084904;28;20870;-55
2023/06/13 08:16:09;;;;;;;3.83;2.00;;;;;;;-143.84;50.41;45049.06;5085921;28;20496;-55
2023/06/13 08:18:38;;;;;;;2.43;1.93;;;;;;;-143.84;50.39;45031.94;5085526;28;20457;-55
2023/06/13 08:21:05;;;;;;;3.63;2.20;;;;;;;-143.84;51.66;45047.16;5086017;28;20443;-55
2023/06/13 08:23:32;;;;;;;5.80;2.20;;;;;;;-143.84;50.58;45052.88;5084434;28;20540;-55
2023/06/13 08:25:59;;;;;;;2.57;2.37;;;;;;;-143.84;50.96;45033.84;5085989;28;20497;-55
2023/06/13 08:28:26;;;;;;;2.70;2.07;;;;;;;-143.84;51.61;45037.66;5085535;28;20442;-55
2023/06/13 08:30:54;;;;;;;10.43;2.03;;;;;;;-143.84;51.17;45035.75;5085534;28;20536;-55
2023/06/13 08:33:22;;;;;;;2.37;2.17;;;;;;;-143.84;51.96;45039.53;5083980;28;20445;-55
2023/06/13 08:35:49;;;;;;;1.80;1.70;;;;;;;-143.84;51.95;45052.88;5085214;28;20936;-55
2023/06/13 08:38:16;;;;;;;6.10;1.90;;;;;;;-143.84;52.24;45039.53;5085402;28;20507;-55
2023/06/13 08:40:43;;;;;;;6.60;2.13;;;;;;;-143.84;50.83;45060.50;5085551;28;20464;-55
2023/06/13 08:43:11;;;;;;;2.93;2.67;;;;;;;-143.84;51.75;45043.34;5085081;28;20484;-55
2023/06/13 08:45:38;;;;;;;3.10;2.30;;;;;;;-143.84;51.78;45066.22;5084258;28;20983;-55
2023/06/13 08:48:06;;;;;;;5.73;1.90;;;;;;;-143.84;52.27;45043.34;5085318;28;20477;-55
2023/06/13 08:50:36;;;;;;;2.43;2.23;;;;;;;-143.84;51.95;45045.25;5085385;28;20498;-55
2023/06/13 08:53:04;;;;;;;2.47;2.17;;;;;;;-143.84;52.53;45030.03;5085321;28;20939;-55
2023/06/13 08:55:37;;;;;;;3.43;1.87;;;;;;;-143.84;52.48;45039.53;5083556;28;20462;-55
2023/06/13 08:58:06;;;;;;;2.30;1.93;;;;;;;-143.84;51.47;45041.44;5085273;28;20583;-55
2023/06/13 09:00:35;;;;;;;5.20;2.40;;;;;;;-143.84;52.07;45064.31;5085055;28;20497;-55
2023/06/13 09:03:04;;;;;;;13.67;2.50;;;;;;;-143.84;51.58;45041.44;5084873;28;20565;-55
2023/06/13 09:05:32;;;;;;;2.50;2.30;;;;;;;-143.84;51.30;45028.13;5083502;28;20445;-55
2023/06/13 09:08:02;;;;;;;6.87;2.13;;;;;;;-143.84;52.35;45047.16;5085247;28;20511;-55
2023/06/13 09:10:30;;;;;;;3.40;3.03;;;;;;;-143.84;51.80;45056.69;5084742;28;20446;-55
2023/06/13 09:12:59;;;;;;;2.90;2.70;;;;;;;-143.84;51.72;45047.16;5088354;28;20451;-55
2023/06/13 09:15:27;;;;;;;4.80;3.20;;;;;;;-143.84;52.38;45037.66;5091077;28;20517;-55
2023/06/13 09:17:56;;;;;;;3.27;3.00;;;;;;;-143.84;52.46;45070.00;5091360;28;20443;-55
2023/06/13 09:20:25;;;;;;;7.60;2.70;;;;;;;-143.84;51.52;45049.06;5091053;28;20442;-55
2023/06/13 09:22:53;;;;;;;6.13;2.40;;;;;;;-143.84;50.99;45060.50;5091394;28;20532;-55
2023/06/13 09:25:23;;;;;;;4.43;2.87;;;;;;;-143.84;50.21;45056.69;5091102;28;20442;-55
2023/06/13 09:27:51;;;;;;;4.20;2.13;;;;;;;-143.84;51.57;45068.13;5091104;28;20459;-55
2023/06/13 09:30:18;;;;;;;4.27;2.73;;;;;;;-143.84;52.08;45058.59;5091232;28;20439;-55
2023/06/13 09:32:49;;;;;;;4.60;1.87;;;;;;;-143.84;52.04;45068.13;5091287;28;20547;-55
2023/06/13 09:35:17;;;;;;;3.37;2.30;;;;;;;-143.84;52.27;45041.44;5090842;28;20450;-55
2023/06/13 09:37:44;;;;;;;3.57;2.10;;;;;;;-143.84;53.74;45041.44;5090771;28;21014;-55
2023/06/13 09:40:13;;;;;;;3.20;2.67;;;;;;;-143.84;52.63;45035.75;5090895;28;20447;-55
2023/06/13 09:42:44;;;;;;;5.43;2.30;;;;;;;-143.84;52.23;45070.00;5090587;28;20549;-55
2023/06/13 09:45:11;;;;;;;1.70;1.60;;;;;;;-143.84;55.15;45045.25;5090533;28;20814;-55
2023/06/13 09:47:38;;;;;;;6.20;2.10;;;;;;;-143.84;53.44;45035.75;5090945;28;20434;-55
2023/06/13 09:50:08;;;;;;;2.20;2.00;;;;;;;-143.84;51.63;45028.13;5090768;28;20508;-55
2023/06/13 09:52:35;;;;;;;2.40;2.20;;;;;;;-143.84;51.60;45070.00;5090627;28;20943;-55
2023/06/13 09:55:02;;;;;;;2.10;2.00;;;;;;;-143.84;53.89;45035.75;5090212;28;20447;-55
2023/06/13 09:57:31;;;;;;;2.23;2.10;;;;;;;-143.84;53.14;45068.13;5089966;28;20445;-55
2023/06/13 10:00:00;;;;;;;2.63;2.40;;;;;;;-143.84;52.04;45064.31;5090464;28;20451;-55
2023/06/13 10:02:27;;;;;;;2.60;2.40;;;;;;;-143.84;51.67;45070.00;5090522;28;20526;-55
2023/06/13 10:04:55;;;;;;;2.73;2.53;;;;;;;-143.84;51.02;45037.66;5090460;28;20485;-55
2023/06/13 10:07:22;;;;;;;3.67;2.57;;;;;;;-143.84;50.90;45026.22;5090586;28;20448;-56
2023/06/13 10:09:49;;;;;;;6.40;2.80;;;;;;;-143.84;50.36;45037.66;5090271;28;21321;-55
2023/06/13 10:12:22;;;;;;;2.97;2.63;;;;;;;-143.84;50.49;45018.59;5090301;28;20545;-55
2023/06/13 10:14:55;;;;;;;6.90;2.37;;;;;;;-143.84;51.75;45039.53;5089717;28;20994;-55
2023/06/13 10:17:27;;;;;;;2.50;2.30;;;;;;;-143.84;52.06;45031.94;5090278;28;20539;-55
2023/06/13 10:20:04;;;;;;;2.40;2.30;;;;;;;-143.84;50.30;45018.59;5090107;28;20443;-55
2023/06/13 10:22:31;;;;;;;2.50;2.30;;;;;;;-143.84;50.26;45049.06;5089802;28;20478;-55
2023/06/13 10:24:59;;;;;;;3.00;2.67;;;;;;;-143.84;51.70;45030.03;5089648;28;20495;-55
2023/06/13 10:27:31;;;;;;;6.70;2.90;;;;;;;-143.84;52.02;45026.22;5089941;28;20478;-55
2023/06/13 10:30:12;;;;;;;2.00;1.90;;;;;;;-143.84;51.26;45031.94;5089636;28;20444;-55
2023/06/13 10:33:11;;;;;;;4.73;2.43;;;;;;;-143.84;50.38;45022.41;5089581;28;20447;-55
2023/06/13 10:35:50;;;;;;;2.40;2.30;;;;;;;-143.84;49.01;45033.84;5089784;28;20458;-55
2023/06/13 10:39:04;;;;;;;8.30;2.97;;;;;;;-143.84;48.66;45030.03;5089739;28;20442;-55
2023/06/13 10:41:58;;;;;;;8.50;2.83;;;;;;;-143.84;46.26;45024.31;5027030;28;20483;-55
2023/06/13 10:44:32;;;;;;;8.00;3.33;;;;;;;-143.84;44.74;44999.56;5089523;28;20574;-55
2023/06/13 10:47:00;;;;;;;5.73;3.00;;;;;;;-143.84;45.18;45028.13;5089421;28;20445;-55
2023/06/13 10:49:37;;;;;;;11.30;2.47;;;;;;;-143.84;44.91;45003.38;5089421;28;20454;-55
2023/06/13 10:52:05;;;;;;;4.80;2.40;;;;;;;-143.84;43.37;45024.31;5089226;28;20970;-55
2023/06/13 10:54:32;;;;;;;6.67;2.27;;;;;;;-143.84;43.79;45028.13;5089575;28;20527;-55
2023/06/13 10:57:01;;;;;;;5.07;2.83;;;;;;;-143.84;43.38;45001.47;5089310;28;21101;-55
2023/06/13 10:59:35;;;;;;;4.60;2.30;;;;;;;-143.84;43.84;45012.88;5089024;28;20450;-55
2023/06/13 11:02:02;;;;;;;3.70;2.30;;;;;;;-143.84;42.86;45028.13;5089065;28;20443;-55
2023/06/13 11:04:30;;;;;;;2.57;2.47;;;;;;;-143.84;43.05;44993.84;5089169;28;21069;-55
2023/06/13 11:07:33;;;;;;;9.50;2.80;;;;;;;-143.84;43.68;45033.84;5089071;28;20479;-55
2023/06/13 11:10:12;;;;;;;6.70;2.30;;;;;;;-143.84;47.38;45026.22;5089355;28;20476;-55
2023/06/13 11:12:41;;;;;;;7.93;2.50;;;;;;;-143.84;48.80;45022.41;5088963;28;20447;-55
2023/06/13 11:15:22;;;;;;;3.43;3.20;;;;;;;-143.84;49.88;45043.34;5088896;28;20491;-55
2023/06/13 11:18:40;;;;;;;5.53;4.07;;;;;;;-143.84;50.99;45039.53;5089060;28;20537;-55
2023/06/13 11:21:08;;;;;;;6.67;3.00;;;;;;;-143.84;51.13;45024.31;5068574;28;20962;-55
2023/06/13 11:23:46;;;;;;;6.87;3.40;;;;;;;-143.84;51.67;45039.53;5088941;28;20485;-55
2023/06/13 11:26:13;;;;;;;4.10;2.30;;;;;;;-143.84;50.72;45028.13;5088865;28;20449;-55